Archangel One — 9HPA9 — position and weather

sailwx.info

Track history (hours):
 
Tides and Currents Weather Stations Pressure Air Temp Water Temp Dewpoint Dewpoint Depression Visibility Wind Speed Wind Dir Waves Ship Positions

Archangel One

Last reported at 2017-Nov-15 22:57 UTC. Time now 2017-Nov-22 13:03 UTC.
Position N 36°48' E 023°21'.

Length 109 m; draft 7.1 m.

Type: Ship (hazmat cat B). MMSI: 249301000.

Date/timePositionNaut miles runAvg speedWind from/ knotsBaromVisibWave heightAir tempDewpointWater temp
2017-Nov-15 22:57N 36°48' E 023°21'1311.5
2017-Nov-15 21:51N 36°60' E 023°27'411.5
2017-Nov-15 21:30N 37°03' E 023°29'611.7
2017-Nov-15 20:57N 37°09' E 023°31'1111.9
2017-Nov-15 20:01N 37°20' E 023°36'012.0
2017-Nov-15 20:00N 37°20' E 023°36'611.9
2017-Nov-15 19:30N 37°25' E 023°39'611.5
2017-Nov-15 19:00N 37°31' E 023°41'611.5
2017-Nov-15 18:30N 37°37' E 023°42'611.4
2017-Nov-15 18:00N 37°42' E 023°40'611.8
2017-Nov-15 17:30N 37°48' E 023°37'611.9
2017-Nov-15 17:00N 37°54' E 023°36'4 8.5
2017-Nov-15 16:30N 37°57' E 023°34'4 7.9
2017-Nov-15 16:00N 38°01' E 023°34'1 1.8
2017-Nov-15 15:12N 38°02' E 023°32'0 0.2
2017-Nov-15 15:00N 38°02' E 023°32'1 2.4
2017-Nov-15 14:31N 38°02' E 023°31'0 0.0
2017-Nov-15 13:58N 38°02' E 023°31'0 0.0
2017-Nov-15 13:22N 38°02' E 023°31'0 0.0
2017-Nov-15 12:58N 38°02' E 023°31'0 0.0
2017-Nov-15 12:16N 38°02' E 023°31'0 0.0
2017-Nov-15 11:52N 38°02' E 023°31'0 0.0
2017-Nov-15 11:28N 38°02' E 023°31'0 0.0
2017-Nov-15 10:52N 38°02' E 023°31'0 0.0
2017-Nov-15 10:28N 38°02' E 023°31'0 0.0
2017-Nov-15 09:58N 38°02' E 023°31'0 0.0
2017-Nov-15 09:10N 38°02' E 023°31'0 0.0
2017-Nov-15 08:49N 38°02' E 023°31'0 0.0
2017-Nov-15 06:49N 38°02' E 023°31'0 0.0
2017-Nov-15 06:25N 38°02' E 023°31'0 0.0
2017-Nov-15 05:58N 38°02' E 023°31'0 0.0
2017-Nov-15 05:28N 38°02' E 023°31'0 0.0
2017-Nov-15 04:58N 38°02' E 023°31'0 0.0
2017-Nov-15 04:28N 38°02' E 023°31'0 0.0
2017-Nov-15 03:58N 38°02' E 023°31'0 0.0
2017-Nov-15 03:28N 38°02' E 023°31'0 0.0
2017-Nov-15 02:58N 38°02' E 023°31'0 0.0
2017-Nov-15 02:28N 38°02' E 023°31'0 0.0
2017-Nov-15 01:58N 38°02' E 023°31'0 0.0
2017-Nov-15 01:28N 38°02' E 023°31'0 0.0
2017-Nov-15 00:58N 38°02' E 023°31'0 0.0
2017-Nov-15 00:28N 38°02' E 023°31'0 0.0
2017-Nov-14 23:58N 38°02' E 023°31'0 0.0
2017-Nov-14 23:28N 38°02' E 023°31'0 0.0
2017-Nov-14 22:58N 38°02' E 023°31'0 0.0
2017-Nov-14 22:28N 38°02' E 023°31'0 0.0
2017-Nov-14 21:58N 38°02' E 023°31'0 0.0
2017-Nov-14 21:28N 38°02' E 023°31'0 0.0
2017-Nov-14 20:58N 38°02' E 023°31'0 0.0
2017-Nov-14 20:28N 38°02' E 023°31'0 0.0
2017-Nov-14 19:58N 38°02' E 023°31'0 0.0
2017-Nov-14 19:28N 38°02' E 023°31'0 0.0
2017-Nov-14 18:58N 38°02' E 023°31'0 0.0
2017-Nov-14 18:28N 38°02' E 023°31'0 0.0
2017-Nov-14 17:58N 38°02' E 023°31'0 0.0
2017-Nov-14 17:28N 38°02' E 023°31'0 0.0
2017-Nov-14 16:58N 38°02' E 023°31'0 0.0
2017-Nov-14 16:28N 38°02' E 023°31'0 0.0
2017-Nov-14 15:58N 38°02' E 023°31'0 0.0
2017-Nov-14 15:28N 38°02' E 023°31'0 0.0
2017-Nov-14 14:58N 38°02' E 023°31'0 0.0
2017-Nov-14 14:28N 38°02' E 023°31'0 0.0
2017-Nov-14 13:58N 38°02' E 023°31'0 0.0
2017-Nov-14 13:28N 38°02' E 023°31'0 0.0
2017-Nov-14 12:58N 38°02' E 023°31'0 0.0
2017-Nov-14 12:28N 38°02' E 023°31'0 0.0
2017-Nov-14 11:58N 38°02' E 023°31'0 0.0
2017-Nov-14 11:28N 38°02' E 023°31'0 0.0
2017-Nov-14 10:58N 38°02' E 023°31'0 0.0
2017-Nov-14 10:28N 38°02' E 023°31'0 0.0
2017-Nov-14 09:58N 38°02' E 023°31'0 0.0
2017-Nov-14 09:28N 38°02' E 023°31'0 0.0
2017-Nov-14 08:58N 38°02' E 023°31'0 0.0
2017-Nov-14 08:28N 38°02' E 023°31'0 0.0
2017-Nov-14 07:58N 38°02' E 023°31'0 0.7
2017-Nov-14 07:30N 38°02' E 023°31'2 3.6
2017-Nov-14 07:00N 38°01' E 023°33'5 9.4
2017-Nov-14 06:30N 37°56' E 023°35'3 5.7
2017-Nov-14 06:00N 37°54' E 023°37'510.7
2017-Nov-14 05:30N 37°49' E 023°40'612.1
2017-Nov-14 05:00N 37°44' E 023°43'611.7
2017-Nov-14 04:30N 37°39' E 023°48'611.4
2017-Nov-14 04:00N 37°35' E 023°53'611.2
2017-Nov-14 03:28N 37°31' E 023°58'  
2017-Nov-08 17:54N 37°31' E 023°57'512.1
2017-Nov-08 17:30N 37°34' E 023°51'5 5.7
2017-Nov-08 16:42N 37°36' E 023°46'1 4.6
2017-Nov-08 16:30N 37°36' E 023°45'611.4
2017-Nov-08 16:01N 37°41' E 023°42'611.6
2017-Nov-08 15:31N 37°46' E 023°38'611.5
2017-Nov-08 15:00N 37°52' E 023°36'510.0
2017-Nov-08 14:31N 37°57' E 023°35'4 8.3
2017-Nov-08 14:00N 38°01' E 023°34'2 2.6
2017-Nov-08 13:22N 38°02' E 023°36'0 0.0
2017-Nov-08 12:58N 38°02' E 023°36'0 0.0
2017-Nov-08 12:22N 38°02' E 023°36'0 0.0
2017-Nov-08 11:58N 38°02' E 023°36'0 0.0
2017-Nov-08 11:28N 38°02' E 023°36'0 0.0
2017-Nov-07 19:25N 38°02' E 023°36'0 0.0
2017-Nov-07 18:58N 38°02' E 023°36'0 0.0
2017-Nov-07 18:13N 38°02' E 023°36'0 0.0
2017-Nov-07 17:58N 38°02' E 023°36'0 0.0
2017-Nov-07 16:58N 38°02' E 023°36'0 0.0
2017-Nov-07 16:22N 38°02' E 023°36'0 0.0
2017-Nov-07 15:58N 38°02' E 023°36'0 0.0
2017-Nov-07 15:16N 38°02' E 023°36'0 0.0
2017-Nov-07 14:58N 38°02' E 023°36'0 0.0
2017-Nov-07 14:28N 38°02' E 023°36'0 0.0
2017-Nov-07 13:58N 38°02' E 023°36'0 0.0
2017-Nov-07 13:10N 38°02' E 023°36'0 0.0
2017-Nov-07 12:58N 38°02' E 023°36'0 0.0
2017-Nov-07 12:28N 38°02' E 023°36'0 0.0
2017-Nov-07 11:58N 38°02' E 023°36'2 3.6
2017-Nov-07 11:31N 38°01' E 023°34'2 2.9
2017-Nov-07 10:59N 38°02' E 023°32'0 0.1
2017-Nov-07 10:29N 38°02' E 023°32'0 0.0
2017-Nov-07 09:59N 38°02' E 023°32'0 0.0
2017-Nov-07 09:29N 38°01' E 023°32'0 0.0
2017-Nov-07 08:59N 38°01' E 023°32'0 0.2
2017-Nov-07 08:29N 38°01' E 023°32'0 0.0
2017-Nov-07 07:56N 38°01' E 023°32'0 0.0
2017-Nov-07 07:29N 38°01' E 023°32'0 0.0
2017-Nov-07 06:59N 38°01' E 023°32'0 0.0
2017-Nov-07 06:29N 38°01' E 023°32'0 0.0
2017-Nov-07 05:59N 38°01' E 023°32'0 0.0
2017-Nov-07 05:29N 38°01' E 023°32'0 0.0
2017-Nov-07 04:59N 38°01' E 023°32'0 0.0
2017-Nov-07 04:29N 38°01' E 023°32'0 0.0
2017-Nov-07 03:59N 38°01' E 023°32'0 0.0
2017-Nov-07 03:29N 38°01' E 023°32'0 0.0
2017-Nov-07 02:59N 38°01' E 023°32'0 0.0
2017-Nov-07 02:29N 38°01' E 023°32'0 0.1
2017-Nov-07 01:59N 38°01' E 023°32'0 0.1
2017-Nov-07 01:29N 38°01' E 023°32'0 0.0
2017-Nov-07 00:59N 38°01' E 023°32'0 0.1
2017-Nov-07 00:29N 38°01' E 023°32'0 0.0
2017-Nov-06 23:59N 38°01' E 023°32'0 0.0
2017-Nov-06 23:29N 38°01' E 023°32'0 0.0
2017-Nov-06 22:59N 38°01' E 023°32'0 0.0
2017-Nov-06 22:29N 38°01' E 023°32'0 0.0
2017-Nov-06 21:59N 38°01' E 023°32'0 0.0
2017-Nov-06 21:29N 38°01' E 023°32'0 0.1
2017-Nov-06 20:56N 38°01' E 023°32'0 0.1
2017-Nov-06 20:29N 38°01' E 023°32'0 0.0
2017-Nov-06 02:29N 38°01' E 023°32'0 0.0
2017-Nov-06 01:59N 38°01' E 023°32'0 0.0
2017-Nov-06 01:29N 38°01' E 023°32'0 0.1
2017-Nov-06 00:59N 38°01' E 023°32'0 0.0
2017-Nov-06 00:29N 38°01' E 023°32'0 0.0
2017-Nov-05 23:59N 38°01' E 023°32'0 0.0
2017-Nov-05 23:29N 38°01' E 023°32'0 0.0
2017-Nov-05 22:59N 38°01' E 023°32'  
Track history (hours):
 
Tides and Currents Weather Stations Pressure Air Temp Water Temp Dewpoint Dewpoint Depression Visibility Wind Speed Wind Dir Waves Ship Positions

Archangel One

Last reported at 2017-Nov-15 22:57 UTC. Time now 2017-Nov-22 13:03 UTC.
Position N 36°48' E 023°21'.

Length 109 m; draft 7.1 m.

Type: Ship (hazmat cat B). MMSI: 249301000.

Date/timePositionNaut miles runAvg speedWind from/ knotsBaromVisibWave heightAir tempDewpointWater temp
2017-Nov-15 22:57N 36°48' E 023°21'1311.5
2017-Nov-15 21:51N 36°60' E 023°27'411.5
2017-Nov-15 21:30N 37°03' E 023°29'611.7
2017-Nov-15 20:57N 37°09' E 023°31'1111.9
2017-Nov-15 20:01N 37°20' E 023°36'012.0
2017-Nov-15 20:00N 37°20' E 023°36'611.9
2017-Nov-15 19:30N 37°25' E 023°39'611.5
2017-Nov-15 19:00N 37°31' E 023°41'611.5
2017-Nov-15 18:30N 37°37' E 023°42'611.4
2017-Nov-15 18:00N 37°42' E 023°40'611.8
2017-Nov-15 17:30N 37°48' E 023°37'611.9
2017-Nov-15 17:00N 37°54' E 023°36'4 8.5
2017-Nov-15 16:30N 37°57' E 023°34'4 7.9
2017-Nov-15 16:00N 38°01' E 023°34'1 1.8
2017-Nov-15 15:12N 38°02' E 023°32'0 0.2
2017-Nov-15 15:00N 38°02' E 023°32'1 2.4
2017-Nov-15 14:31N 38°02' E 023°31'0 0.0
2017-Nov-15 13:58N 38°02' E 023°31'0 0.0
2017-Nov-15 13:22N 38°02' E 023°31'0 0.0
2017-Nov-15 12:58N 38°02' E 023°31'0 0.0
2017-Nov-15 12:16N 38°02' E 023°31'0 0.0
2017-Nov-15 11:52N 38°02' E 023°31'0 0.0
2017-Nov-15 11:28N 38°02' E 023°31'0 0.0
2017-Nov-15 10:52N 38°02' E 023°31'0 0.0
2017-Nov-15 10:28N 38°02' E 023°31'0 0.0
2017-Nov-15 09:58N 38°02' E 023°31'0 0.0
2017-Nov-15 09:10N 38°02' E 023°31'0 0.0
2017-Nov-15 08:49N 38°02' E 023°31'0 0.0
2017-Nov-15 06:49N 38°02' E 023°31'0 0.0
2017-Nov-15 06:25N 38°02' E 023°31'0 0.0
2017-Nov-15 05:58N 38°02' E 023°31'0 0.0
2017-Nov-15 05:28N 38°02' E 023°31'0 0.0
2017-Nov-15 04:58N 38°02' E 023°31'0 0.0
2017-Nov-15 04:28N 38°02' E 023°31'0 0.0
2017-Nov-15 03:58N 38°02' E 023°31'0 0.0
2017-Nov-15 03:28N 38°02' E 023°31'0 0.0
2017-Nov-15 02:58N 38°02' E 023°31'0 0.0
2017-Nov-15 02:28N 38°02' E 023°31'0 0.0
2017-Nov-15 01:58N 38°02' E 023°31'0 0.0
2017-Nov-15 01:28N 38°02' E 023°31'0 0.0
2017-Nov-15 00:58N 38°02' E 023°31'0 0.0
2017-Nov-15 00:28N 38°02' E 023°31'0 0.0
2017-Nov-14 23:58N 38°02' E 023°31'0 0.0
2017-Nov-14 23:28N 38°02' E 023°31'0 0.0
2017-Nov-14 22:58N 38°02' E 023°31'0 0.0
2017-Nov-14 22:28N 38°02' E 023°31'0 0.0
2017-Nov-14 21:58N 38°02' E 023°31'0 0.0
2017-Nov-14 21:28N 38°02' E 023°31'0 0.0
2017-Nov-14 20:58N 38°02' E 023°31'0 0.0
2017-Nov-14 20:28N 38°02' E 023°31'0 0.0
2017-Nov-14 19:58N 38°02' E 023°31'0 0.0
2017-Nov-14 19:28N 38°02' E 023°31'0 0.0
2017-Nov-14 18:58N 38°02' E 023°31'0 0.0
2017-Nov-14 18:28N 38°02' E 023°31'0 0.0
2017-Nov-14 17:58N 38°02' E 023°31'0 0.0
2017-Nov-14 17:28N 38°02' E 023°31'0 0.0
2017-Nov-14 16:58N 38°02' E 023°31'0 0.0
2017-Nov-14 16:28N 38°02' E 023°31'0 0.0
2017-Nov-14 15:58N 38°02' E 023°31'0 0.0
2017-Nov-14 15:28N 38°02' E 023°31'0 0.0
2017-Nov-14 14:58N 38°02' E 023°31'0 0.0
2017-Nov-14 14:28N 38°02' E 023°31'0 0.0
2017-Nov-14 13:58N 38°02' E 023°31'0 0.0
2017-Nov-14 13:28N 38°02' E 023°31'0 0.0
2017-Nov-14 12:58N 38°02' E 023°31'0 0.0
2017-Nov-14 12:28N 38°02' E 023°31'0 0.0
2017-Nov-14 11:58N 38°02' E 023°31'0 0.0
2017-Nov-14 11:28N 38°02' E 023°31'0 0.0
2017-Nov-14 10:58N 38°02' E 023°31'0 0.0
2017-Nov-14 10:28N 38°02' E 023°31'0 0.0
2017-Nov-14 09:58N 38°02' E 023°31'0 0.0
2017-Nov-14 09:28N 38°02' E 023°31'0 0.0
2017-Nov-14 08:58N 38°02' E 023°31'0 0.0
2017-Nov-14 08:28N 38°02' E 023°31'0 0.0
2017-Nov-14 07:58N 38°02' E 023°31'0 0.7
2017-Nov-14 07:30N 38°02' E 023°31'2 3.6
2017-Nov-14 07:00N 38°01' E 023°33'5 9.4
2017-Nov-14 06:30N 37°56' E 023°35'3 5.7
2017-Nov-14 06:00N 37°54' E 023°37'510.7
2017-Nov-14 05:30N 37°49' E 023°40'612.1
2017-Nov-14 05:00N 37°44' E 023°43'611.7
2017-Nov-14 04:30N 37°39' E 023°48'611.4
2017-Nov-14 04:00N 37°35' E 023°53'611.2
2017-Nov-14 03:28N 37°31' E 023°58'  
2017-Nov-08 17:54N 37°31' E 023°57'512.1
2017-Nov-08 17:30N 37°34' E 023°51'5 5.7
2017-Nov-08 16:42N 37°36' E 023°46'1 4.6
2017-Nov-08 16:30N 37°36' E 023°45'611.4
2017-Nov-08 16:01N 37°41' E 023°42'611.6
2017-Nov-08 15:31N 37°46' E 023°38'611.5
2017-Nov-08 15:00N 37°52' E 023°36'510.0
2017-Nov-08 14:31N 37°57' E 023°35'4 8.3
2017-Nov-08 14:00N 38°01' E 023°34'2 2.6
2017-Nov-08 13:22N 38°02' E 023°36'0 0.0
2017-Nov-08 12:58N 38°02' E 023°36'0 0.0
2017-Nov-08 12:22N 38°02' E 023°36'0 0.0
2017-Nov-08 11:58N 38°02' E 023°36'0 0.0
2017-Nov-08 11:28N 38°02' E 023°36'0 0.0
2017-Nov-07 19:25N 38°02' E 023°36'0 0.0
2017-Nov-07 18:58N 38°02' E 023°36'0 0.0
2017-Nov-07 18:13N 38°02' E 023°36'0 0.0
2017-Nov-07 17:58N 38°02' E 023°36'0 0.0
2017-Nov-07 16:58N 38°02' E 023°36'0 0.0
2017-Nov-07 16:22N 38°02' E 023°36'0 0.0
2017-Nov-07 15:58N 38°02' E 023°36'0 0.0
2017-Nov-07 15:16N 38°02' E 023°36'0 0.0
2017-Nov-07 14:58N 38°02' E 023°36'0 0.0
2017-Nov-07 14:28N 38°02' E 023°36'0 0.0
2017-Nov-07 13:58N 38°02' E 023°36'0 0.0
2017-Nov-07 13:10N 38°02' E 023°36'0 0.0
2017-Nov-07 12:58N 38°02' E 023°36'0 0.0
2017-Nov-07 12:28N 38°02' E 023°36'0 0.0
2017-Nov-07 11:58N 38°02' E 023°36'2 3.6
2017-Nov-07 11:31N 38°01' E 023°34'2 2.9
2017-Nov-07 10:59N 38°02' E 023°32'0 0.1
2017-Nov-07 10:29N 38°02' E 023°32'0 0.0
2017-Nov-07 09:59N 38°02' E 023°32'0 0.0
2017-Nov-07 09:29N 38°01' E 023°32'0 0.0
2017-Nov-07 08:59N 38°01' E 023°32'0 0.2
2017-Nov-07 08:29N 38°01' E 023°32'0 0.0
2017-Nov-07 07:56N 38°01' E 023°32'0 0.0
2017-Nov-07 07:29N 38°01' E 023°32'0 0.0
2017-Nov-07 06:59N 38°01' E 023°32'0 0.0
2017-Nov-07 06:29N 38°01' E 023°32'0 0.0
2017-Nov-07 05:59N 38°01' E 023°32'0 0.0
2017-Nov-07 05:29N 38°01' E 023°32'0 0.0
2017-Nov-07 04:59N 38°01' E 023°32'0 0.0
2017-Nov-07 04:29N 38°01' E 023°32'0 0.0
2017-Nov-07 03:59N 38°01' E 023°32'0 0.0
2017-Nov-07 03:29N 38°01' E 023°32'0 0.0
2017-Nov-07 02:59N 38°01' E 023°32'0 0.0
2017-Nov-07 02:29N 38°01' E 023°32'0 0.1
2017-Nov-07 01:59N 38°01' E 023°32'0 0.1
2017-Nov-07 01:29N 38°01' E 023°32'0 0.0
2017-Nov-07 00:59N 38°01' E 023°32'0 0.1
2017-Nov-07 00:29N 38°01' E 023°32'0 0.0
2017-Nov-06 23:59N 38°01' E 023°32'0 0.0
2017-Nov-06 23:29N 38°01' E 023°32'0 0.0
2017-Nov-06 22:59N 38°01' E 023°32'0 0.0
2017-Nov-06 22:29N 38°01' E 023°32'0 0.0
2017-Nov-06 21:59N 38°01' E 023°32'0 0.0
2017-Nov-06 21:29N 38°01' E 023°32'0 0.1
2017-Nov-06 20:56N 38°01' E 023°32'0 0.1
2017-Nov-06 20:29N 38°01' E 023°32'0 0.0
2017-Nov-06 02:29N 38°01' E 023°32'0 0.0
2017-Nov-06 01:59N 38°01' E 023°32'0 0.0
2017-Nov-06 01:29N 38°01' E 023°32'0 0.1
2017-Nov-06 00:59N 38°01' E 023°32'0 0.0
2017-Nov-06 00:29N 38°01' E 023°32'0 0.0
2017-Nov-05 23:59N 38°01' E 023°32'0 0.0
2017-Nov-05 23:29N 38°01' E 023°32'0 0.0
2017-Nov-05 22:59N 38°01' E 023°32'  

Dump ship's entire track history